Terminal Aerodrome Forecast
Issued by NWS Blacksburg, VA

Home | Current Version | Previous Version | Text Only | Print | Product List | Glossary On
Versions: 1 2 3 4 5 6 7 8 9 10 11
000
FTUS41 KRNK 260540
TAFROA
TAF
KROA 260540Z 2606/2706 VRB03KT P6SM SCT050
     FM261000 VRB03KT P6SM BKN050
     FM261600 17007KT P6SM VCSH BKN045
     FM262200 16005KT P6SM -SHRA OVC030=

USA.gov is the U.S. government's official web portal to all federal, state and local government web resources and services.